sensor_id;sensor_type;location;lat;lon;timestamp;pressure;altitude;pressure_sealevel;temperature;humidity
64841;BME280;51307;52.162;7.560;2023-04-06T00:00:59;101356.19;;;5.66;42.33
64841;BME280;51307;52.162;7.560;2023-04-06T00:03:24;101367.00;;;5.76;42.18
64841;BME280;51307;52.162;7.560;2023-04-06T00:05:50;101347.84;;;5.59;42.59
64841;BME280;51307;52.162;7.560;2023-04-06T00:08:16;101352.34;;;5.46;42.78
64841;BME280;51307;52.162;7.560;2023-04-06T00:10:42;101355.00;;;5.46;42.67
64841;BME280;51307;52.162;7.560;2023-04-06T00:13:08;101345.88;;;5.50;42.73
64841;BME280;51307;52.162;7.560;2023-04-06T00:15:34;101342.09;;;5.41;42.44
64841;BME280;51307;52.162;7.560;2023-04-06T00:17:59;101343.78;;;5.42;42.19
64841;BME280;51307;52.162;7.560;2023-04-06T00:20:25;101340.78;;;5.22;42.46
64841;BME280;51307;52.162;7.560;2023-04-06T00:22:51;101337.84;;;5.38;42.43
64841;BME280;51307;52.162;7.560;2023-04-06T00:25:16;101336.22;;;5.25;43.06
64841;BME280;51307;52.162;7.560;2023-04-06T00:27:42;101337.06;;;5.25;43.10
64841;BME280;51307;52.162;7.560;2023-04-06T00:30:08;101329.53;;;5.19;43.43
64841;BME280;51307;52.162;7.560;2023-04-06T00:32:34;101332.00;;;5.22;43.33
64841;BME280;51307;52.162;7.560;2023-04-06T00:35:06;101325.94;;;5.20;43.12
64841;BME280;51307;52.162;7.560;2023-04-06T00:37:32;101324.59;;;5.14;42.98
64841;BME280;51307;52.162;7.560;2023-04-06T00:39:57;101323.56;;;5.04;43.15
64841;BME280;51307;52.162;7.560;2023-04-06T00:42:24;101325.38;;;5.03;43.27
64841;BME280;51307;52.162;7.560;2023-04-06T00:44:57;101319.00;;;5.06;43.47
64841;BME280;51307;52.162;7.560;2023-04-06T00:47:24;101313.94;;;4.90;43.51
64841;BME280;51307;52.162;7.560;2023-04-06T00:49:54;101315.47;;;5.05;43.27
64841;BME280;51307;52.162;7.560;2023-04-06T00:52:21;101305.75;;;4.93;43.84
64841;BME280;51307;52.162;7.560;2023-04-06T00:54:47;101303.47;;;4.88;43.54
64841;BME280;51307;52.162;7.560;2023-04-06T00:57:13;101308.59;;;4.79;44.00
64841;BME280;51307;52.162;7.560;2023-04-06T00:59:40;101306.13;;;4.76;43.84
64841;BME280;51307;52.162;7.560;2023-04-06T01:02:06;101309.53;;;4.78;43.56
64841;BME280;51307;52.162;7.560;2023-04-06T01:04:32;101298.53;;;4.71;43.93
64841;BME280;51307;52.162;7.560;2023-04-06T01:06:58;101289.69;;;4.70;43.08
64841;BME280;51307;52.162;7.560;2023-04-06T01:09:24;101303.94;;;4.69;43.11
64841;BME280;51307;52.162;7.560;2023-04-06T01:11:49;101293.81;;;4.87;42.64
64841;BME280;51307;52.162;7.560;2023-04-06T01:14:15;101290.22;;;4.76;42.40
64841;BME280;51307;52.162;7.560;2023-04-06T01:16:41;101290.56;;;4.71;42.99
64841;BME280;51307;52.162;7.560;2023-04-06T01:19:16;101282.28;;;4.76;43.03
64841;BME280;51307;52.162;7.560;2023-04-06T01:21:42;101285.88;;;4.75;43.45
64841;BME280;51307;52.162;7.560;2023-04-06T01:24:08;101282.28;;;4.76;43.47
64841;BME280;51307;52.162;7.560;2023-04-06T01:26:35;101287.81;;;4.60;43.59
64841;BME280;51307;52.162;7.560;2023-04-06T01:29:02;101283.16;;;4.63;43.55
64841;BME280;51307;52.162;7.560;2023-04-06T01:31:28;101285.09;;;4.61;43.71
64841;BME280;51307;52.162;7.560;2023-04-06T01:33:54;101278.97;;;4.48;43.78
64841;BME280;51307;52.162;7.560;2023-04-06T01:36:20;101281.50;;;4.49;43.87
64841;BME280;51307;52.162;7.560;2023-04-06T01:38:46;101277.47;;;4.44;44.02
64841;BME280;51307;52.162;7.560;2023-04-06T01:41:11;101272.81;;;4.34;43.85
64841;BME280;51307;52.162;7.560;2023-04-06T01:43:37;101278.19;;;4.46;43.58
64841;BME280;51307;52.162;7.560;2023-04-06T01:46:03;101276.63;;;4.30;43.70
64841;BME280;51307;52.162;7.560;2023-04-06T01:48:29;101278.09;;;4.34;44.04
64841;BME280;51307;52.162;7.560;2023-04-06T01:50:54;101275.88;;;4.28;44.36
64841;BME280;51307;52.162;7.560;2023-04-06T01:53:21;101278.75;;;4.25;44.24
64841;BME280;51307;52.162;7.560;2023-04-06T01:55:50;101267.84;;;4.17;44.30
64841;BME280;51307;52.162;7.560;2023-04-06T01:58:15;101266.34;;;4.26;44.61
64841;BME280;51307;52.162;7.560;2023-04-06T02:00:41;101270.25;;;4.20;44.23
64841;BME280;51307;52.162;7.560;2023-04-06T02:03:06;101269.09;;;4.24;43.82
64841;BME280;51307;52.162;7.560;2023-04-06T02:05:33;101271.97;;;4.21;43.73
64841;BME280;51307;52.162;7.560;2023-04-06T02:08:04;101267.31;;;4.12;43.83
64841;BME280;51307;52.162;7.560;2023-04-06T02:10:31;101259.34;;;4.25;44.30
64841;BME280;51307;52.162;7.560;2023-04-06T02:12:56;101262.00;;;4.12;44.50
64841;BME280;51307;52.162;7.560;2023-04-06T02:15:22;101262.41;;;4.05;44.60
64841;BME280;51307;52.162;7.560;2023-04-06T02:17:47;101262.88;;;3.99;45.07
64841;BME280;51307;52.162;7.560;2023-04-06T02:20:13;101253.00;;;4.01;44.27
64841;BME280;51307;52.162;7.560;2023-04-06T02:22:39;101247.81;;;4.00;44.42
64841;BME280;51307;52.162;7.560;2023-04-06T02:25:05;101254.28;;;3.96;44.05
64841;BME280;51307;52.162;7.560;2023-04-06T02:27:30;101252.06;;;4.02;44.07
64841;BME280;51307;52.162;7.560;2023-04-06T02:29:56;101251.84;;;4.05;44.65
64841;BME280;51307;52.162;7.560;2023-04-06T02:32:21;101253.53;;;3.94;44.23
64841;BME280;51307;52.162;7.560;2023-04-06T02:34:47;101251.53;;;3.97;44.99
64841;BME280;51307;52.162;7.560;2023-04-06T02:37:12;101251.41;;;3.99;45.11
64841;BME280;51307;52.162;7.560;2023-04-06T02:39:38;101243.97;;;3.91;44.93
64841;BME280;51307;52.162;7.560;2023-04-06T02:42:04;101245.16;;;4.00;44.72
64841;BME280;51307;52.162;7.560;2023-04-06T02:44:29;101241.66;;;3.86;44.88
64841;BME280;51307;52.162;7.560;2023-04-06T02:46:55;101240.84;;;3.86;45.32
64841;BME280;51307;52.162;7.560;2023-04-06T02:49:20;101239.75;;;3.76;45.38
64841;BME280;51307;52.162;7.560;2023-04-06T02:51:46;101243.16;;;3.78;45.50
64841;BME280;51307;52.162;7.560;2023-04-06T02:54:11;101233.38;;;3.65;45.54
64841;BME280;51307;52.162;7.560;2023-04-06T02:56:37;101234.03;;;3.69;45.11
64841;BME280;51307;52.162;7.560;2023-04-06T02:59:02;101241.66;;;3.74;45.16
64841;BME280;51307;52.162;7.560;2023-04-06T03:01:28;101231.72;;;3.64;45.64
64841;BME280;51307;52.162;7.560;2023-04-06T03:03:53;101236.88;;;3.53;45.48
64841;BME280;51307;52.162;7.560;2023-04-06T03:06:19;101234.88;;;3.57;45.60
64841;BME280;51307;52.162;7.560;2023-04-06T03:08:45;101235.94;;;3.54;46.26
64841;BME280;51307;52.162;7.560;2023-04-06T03:11:10;101238.56;;;3.54;45.84
64841;BME280;51307;52.162;7.560;2023-04-06T03:13:37;101239.19;;;3.45;46.06
64841;BME280;51307;52.162;7.560;2023-04-06T03:16:04;101240.69;;;3.49;46.30
64841;BME280;51307;52.162;7.560;2023-04-06T03:18:31;101237.47;;;3.31;46.46
64841;BME280;51307;52.162;7.560;2023-04-06T03:20:56;101234.41;;;3.24;46.37
64841;BME280;51307;52.162;7.560;2023-04-06T03:23:22;101231.59;;;3.13;46.82
64841;BME280;51307;52.162;7.560;2023-04-06T03:25:48;101239.47;;;3.27;46.98
64841;BME280;51307;52.162;7.560;2023-04-06T03:28:13;101244.09;;;3.24;46.56
64841;BME280;51307;52.162;7.560;2023-04-06T03:30:39;101234.69;;;3.19;46.59
64841;BME280;51307;52.162;7.560;2023-04-06T03:33:05;101232.91;;;3.20;46.56
64841;BME280;51307;52.162;7.560;2023-04-06T03:35:30;101244.75;;;3.27;46.55
64841;BME280;51307;52.162;7.560;2023-04-06T03:37:56;101237.59;;;3.29;46.52
64841;BME280;51307;52.162;7.560;2023-04-06T03:40:21;101224.00;;;3.21;46.65
64841;BME280;51307;52.162;7.560;2023-04-06T03:42:47;101230.53;;;3.15;46.68
64841;BME280;51307;52.162;7.560;2023-04-06T03:45:12;101233.34;;;3.27;46.50
64841;BME280;51307;52.162;7.560;2023-04-06T03:47:39;101228.44;;;3.20;46.21
64841;BME280;51307;52.162;7.560;2023-04-06T03:50:05;101232.69;;;3.23;46.30
64841;BME280;51307;52.162;7.560;2023-04-06T03:52:30;101226.75;;;3.19;46.07
64841;BME280;51307;52.162;7.560;2023-04-06T03:54:56;101228.34;;;3.22;45.91
64841;BME280;51307;52.162;7.560;2023-04-06T03:57:21;101230.34;;;3.18;46.20
64841;BME280;51307;52.162;7.560;2023-04-06T03:59:47;101228.00;;;3.14;45.75
64841;BME280;51307;52.162;7.560;2023-04-06T04:02:12;101223.03;;;3.09;46.24
64841;BME280;51307;52.162;7.560;2023-04-06T04:04:38;101232.09;;;3.32;45.37
64841;BME280;51307;52.162;7.560;2023-04-06T04:07:03;101223.38;;;3.17;45.57
64841;BME280;51307;52.162;7.560;2023-04-06T04:09:29;101228.00;;;3.14;45.95
64841;BME280;51307;52.162;7.560;2023-04-06T04:11:55;101232.97;;;3.18;45.82
64841;BME280;51307;52.162;7.560;2023-04-06T04:14:20;101229.81;;;3.13;46.16
64841;BME280;51307;52.162;7.560;2023-04-06T04:16:46;101236.50;;;3.32;45.85
64841;BME280;51307;52.162;7.560;2023-04-06T04:19:11;101241.09;;;3.02;46.32
64841;BME280;51307;52.162;7.560;2023-04-06T04:21:45;101237.31;;;3.07;46.26
64841;BME280;51307;52.162;7.560;2023-04-06T04:24:11;101246.00;;;2.94;46.60
64841;BME280;51307;52.162;7.560;2023-04-06T04:26:37;101236.00;;;2.99;45.97
64841;BME280;51307;52.162;7.560;2023-04-06T04:29:02;101242.16;;;3.00;46.24
64841;BME280;51307;52.162;7.560;2023-04-06T04:31:28;101240.94;;;2.91;46.64
64841;BME280;51307;52.162;7.560;2023-04-06T04:33:53;101229.63;;;2.89;45.77
64841;BME280;51307;52.162;7.560;2023-04-06T04:36:19;101240.94;;;2.91;45.75
64841;BME280;51307;52.162;7.560;2023-04-06T04:38:44;101232.63;;;2.97;46.14
64841;BME280;51307;52.162;7.560;2023-04-06T04:41:10;101237.25;;;2.94;45.98
64841;BME280;51307;52.162;7.560;2023-04-06T04:43:36;101242.84;;;2.89;46.68
64841;BME280;51307;52.162;7.560;2023-04-06T04:46:01;101239.53;;;2.85;46.59
64841;BME280;51307;52.162;7.560;2023-04-06T04:48:27;101239.16;;;2.92;46.66
64841;BME280;51307;52.162;7.560;2023-04-06T04:50:52;101231.94;;;2.81;46.51
64841;BME280;51307;52.162;7.560;2023-04-06T04:53:20;101236.94;;;2.71;46.41
64841;BME280;51307;52.162;7.560;2023-04-06T04:55:45;101236.81;;;2.73;46.38
64841;BME280;51307;52.162;7.560;2023-04-06T04:58:11;101241.59;;;2.67;46.23
64841;BME280;51307;52.162;7.560;2023-04-06T05:00:40;101237.88;;;2.70;46.62
64841;BME280;51307;52.162;7.560;2023-04-06T05:03:06;101240.78;;;2.80;46.55
64841;BME280;51307;52.162;7.560;2023-04-06T05:05:32;101240.13;;;2.76;46.06
64841;BME280;51307;52.162;7.560;2023-04-06T05:07:57;101234.19;;;2.73;46.39
64841;BME280;51307;52.162;7.560;2023-04-06T05:10:23;101239.19;;;2.77;46.46
64841;BME280;51307;52.162;7.560;2023-04-06T05:12:49;101237.22;;;2.81;46.49
64841;BME280;51307;52.162;7.560;2023-04-06T05:15:14;101241.34;;;2.85;46.23
64841;BME280;51307;52.162;7.560;2023-04-06T05:17:40;101241.69;;;2.93;46.52
64841;BME280;51307;52.162;7.560;2023-04-06T05:20:06;101232.88;;;2.80;46.47
64841;BME280;51307;52.162;7.560;2023-04-06T05:22:31;101237.22;;;2.81;46.90
64841;BME280;51307;52.162;7.560;2023-04-06T05:24:57;101237.50;;;2.76;46.47
64841;BME280;51307;52.162;7.560;2023-04-06T05:27:23;101229.78;;;2.73;46.35
64841;BME280;51307;52.162;7.560;2023-04-06T05:29:48;101230.22;;;2.80;46.67
64841;BME280;51307;52.162;7.560;2023-04-06T05:32:14;101226.31;;;2.85;46.77
64841;BME280;51307;52.162;7.560;2023-04-06T05:34:40;101231.03;;;2.95;46.51
64841;BME280;51307;52.162;7.560;2023-04-06T05:37:05;101232.78;;;2.94;46.57
64841;BME280;51307;52.162;7.560;2023-04-06T05:39:31;101220.78;;;3.03;46.13
64841;BME280;51307;52.162;7.560;2023-04-06T05:41:56;101224.22;;;3.18;46.07
64841;BME280;51307;52.162;7.560;2023-04-06T05:44:22;101221.22;;;3.10;45.97
64841;BME280;51307;52.162;7.560;2023-04-06T05:46:47;101212.78;;;2.90;46.19
64841;BME280;51307;52.162;7.560;2023-04-06T05:49:13;101218.63;;;3.23;45.23
64841;BME280;51307;52.162;7.560;2023-04-06T05:51:39;101227.91;;;3.15;45.56
64841;BME280;51307;52.162;7.560;2023-04-06T05:54:04;101225.91;;;3.19;45.85
64841;BME280;51307;52.162;7.560;2023-04-06T05:56:30;101226.03;;;3.30;45.46
64841;BME280;51307;52.162;7.560;2023-04-06T05:58:57;101216.44;;;3.29;45.55
64841;BME280;51307;52.162;7.560;2023-04-06T06:01:22;101221.91;;;3.26;45.68
64841;BME280;51307;52.162;7.560;2023-04-06T06:03:48;101211.41;;;3.78;44.76
64841;BME280;51307;52.162;7.560;2023-04-06T06:06:13;101219.84;;;3.57;45.03
64841;BME280;51307;52.162;7.560;2023-04-06T06:08:39;101226.19;;;3.42;45.52
64841;BME280;51307;52.162;7.560;2023-04-06T06:11:04;101217.94;;;3.59;44.95
64841;BME280;51307;52.162;7.560;2023-04-06T06:13:30;101213.91;;;3.66;45.42
64841;BME280;51307;52.162;7.560;2023-04-06T06:15:55;101216.47;;;3.55;45.84
64841;BME280;51307;52.162;7.560;2023-04-06T06:18:21;101218.28;;;3.67;45.45
64841;BME280;51307;52.162;7.560;2023-04-06T06:20:47;101217.09;;;4.10;44.71
64841;BME280;51307;52.162;7.560;2023-04-06T06:23:12;101228.31;;;4.27;44.12
64841;BME280;51307;52.162;7.560;2023-04-06T06:25:37;101220.16;;;3.91;44.96
64841;BME280;51307;52.162;7.560;2023-04-06T06:28:03;101217.09;;;3.97;44.65
64841;BME280;51307;52.162;7.560;2023-04-06T06:30:29;101220.47;;;4.12;44.03
64841;BME280;51307;52.162;7.560;2023-04-06T06:32:55;101216.41;;;4.32;44.10
64841;BME280;51307;52.162;7.560;2023-04-06T06:35:20;101212.88;;;4.08;44.39
64841;BME280;51307;52.162;7.560;2023-04-06T06:37:46;101216.41;;;4.32;44.27
64841;BME280;51307;52.162;7.560;2023-04-06T06:40:11;101218.00;;;4.35;44.43
64841;BME280;51307;52.162;7.560;2023-04-06T06:42:38;101226.13;;;4.45;44.03
64841;BME280;51307;52.162;7.560;2023-04-06T06:45:05;101225.59;;;4.39;44.11
64841;BME280;51307;52.162;7.560;2023-04-06T06:47:31;101218.13;;;4.33;44.44
64841;BME280;51307;52.162;7.560;2023-04-06T06:49:56;101226.13;;;4.45;44.15
64841;BME280;51307;52.162;7.560;2023-04-06T06:52:22;101225.28;;;4.44;44.26
64841;BME280;51307;52.162;7.560;2023-04-06T06:54:49;101219.59;;;4.37;44.75
64841;BME280;51307;52.162;7.560;2023-04-06T06:57:15;101214.25;;;4.63;44.38
64841;BME280;51307;52.162;7.560;2023-04-06T06:59:40;101215.31;;;4.61;44.42
64841;BME280;51307;52.162;7.560;2023-04-06T07:02:06;101217.03;;;4.49;44.52
64841;BME280;51307;52.162;7.560;2023-04-06T07:04:31;101215.53;;;4.58;44.89
64841;BME280;51307;52.162;7.560;2023-04-06T07:06:57;101209.84;;;4.51;44.54
64841;BME280;51307;52.162;7.560;2023-04-06T07:09:22;101214.28;;;4.50;44.91
64841;BME280;51307;52.162;7.560;2023-04-06T07:11:48;101219.47;;;4.52;45.15
64841;BME280;51307;52.162;7.560;2023-04-06T07:14:15;101214.28;;;4.75;45.01
64841;BME280;51307;52.162;7.560;2023-04-06T07:16:41;101217.13;;;4.60;45.06
64841;BME280;51307;52.162;7.560;2023-04-06T07:19:07;101211.72;;;4.86;44.84
64841;BME280;51307;52.162;7.560;2023-04-06T07:21:34;101209.09;;;4.97;44.90
64841;BME280;51307;52.162;7.560;2023-04-06T07:23:59;101212.91;;;4.82;45.05
64841;BME280;51307;52.162;7.560;2023-04-06T07:26:25;101211.22;;;4.81;45.51
64841;BME280;51307;52.162;7.560;2023-04-06T07:28:50;101207.81;;;5.38;44.52
64841;BME280;51307;52.162;7.560;2023-04-06T07:31:16;101198.59;;;5.55;44.58
64841;BME280;51307;52.162;7.560;2023-04-06T07:33:41;101211.69;;;5.46;44.78
64841;BME280;51307;52.162;7.560;2023-04-06T07:36:07;101205.25;;;5.26;45.04
64841;BME280;51307;52.162;7.560;2023-04-06T07:38:32;101203.16;;;5.53;44.58
64841;BME280;51307;52.162;7.560;2023-04-06T07:40:58;101207.31;;;5.69;44.29
64841;BME280;51307;52.162;7.560;2023-04-06T07:43:24;101196.06;;;5.65;44.00
64841;BME280;51307;52.162;7.560;2023-04-06T07:45:50;101198.38;;;5.81;44.11
64841;BME280;51307;52.162;7.560;2023-04-06T07:48:19;101202.38;;;5.87;43.62
64841;BME280;51307;52.162;7.560;2023-04-06T07:50:44;101198.63;;;5.89;43.67
64841;BME280;51307;52.162;7.560;2023-04-06T07:53:10;101197.03;;;5.98;43.64
64841;BME280;51307;52.162;7.560;2023-04-06T07:55:35;101198.50;;;6.02;43.43
64841;BME280;51307;52.162;7.560;2023-04-06T07:58:01;101197.66;;;6.13;43.42
64841;BME280;51307;52.162;7.560;2023-04-06T08:00:26;101202.34;;;6.21;43.45
64841;BME280;51307;52.162;7.560;2023-04-06T08:02:54;101196.22;;;6.20;43.24
64841;BME280;51307;52.162;7.560;2023-04-06T08:05:20;101195.59;;;6.17;43.49
64841;BME280;51307;52.162;7.560;2023-04-06T08:07:46;101201.75;;;6.29;43.46
64841;BME280;51307;52.162;7.560;2023-04-06T08:10:11;101198.19;;;6.51;43.06
64841;BME280;51307;52.162;7.560;2023-04-06T08:12:37;101195.28;;;6.65;42.97
64841;BME280;51307;52.162;7.560;2023-04-06T08:15:02;101193.75;;;6.51;43.18
64841;BME280;51307;52.162;7.560;2023-04-06T08:17:29;101197.59;;;6.58;42.57
64841;BME280;51307;52.162;7.560;2023-04-06T08:19:55;101199.84;;;6.74;42.00
64841;BME280;51307;52.162;7.560;2023-04-06T08:22:21;101194.47;;;6.86;41.74
64841;BME280;51307;52.162;7.560;2023-04-06T08:24:47;101195.22;;;6.88;41.85
64841;BME280;51307;52.162;7.560;2023-04-06T08:27:12;101180.94;;;6.89;41.09
64841;BME280;51307;52.162;7.560;2023-04-06T08:29:40;101195.91;;;6.90;41.13
64841;BME280;51307;52.162;7.560;2023-04-06T08:32:05;101195.47;;;6.85;41.04
64841;BME280;51307;52.162;7.560;2023-04-06T08:34:32;101188.44;;;6.95;40.80
64841;BME280;51307;52.162;7.560;2023-04-06T08:36:58;101175.88;;;6.97;41.21
64841;BME280;51307;52.162;7.560;2023-04-06T08:39:23;101184.53;;;7.11;41.18
64841;BME280;51307;52.162;7.560;2023-04-06T08:41:51;101186.91;;;7.14;41.19
64841;BME280;51307;52.162;7.560;2023-04-06T08:44:18;101187.38;;;7.19;41.26
64841;BME280;51307;52.162;7.560;2023-04-06T08:46:44;101186.00;;;7.24;41.47
64841;BME280;51307;52.162;7.560;2023-04-06T08:49:10;101188.22;;;7.40;40.90
64841;BME280;51307;52.162;7.560;2023-04-06T08:51:37;101174.88;;;7.31;40.62
64841;BME280;51307;52.162;7.560;2023-04-06T08:54:03;101176.06;;;7.48;40.73
64841;BME280;51307;52.162;7.560;2023-04-06T08:56:29;101178.94;;;7.56;40.21
64841;BME280;51307;52.162;7.560;2023-04-06T08:58:55;101172.19;;;7.52;40.37
64841;BME280;51307;52.162;7.560;2023-04-06T09:01:26;101172.94;;;7.64;40.49
64841;BME280;51307;52.162;7.560;2023-04-06T09:03:56;101174.97;;;7.71;40.97
64841;BME280;51307;52.162;7.560;2023-04-06T09:06:22;101174.47;;;7.87;40.88
64841;BME280;51307;52.162;7.560;2023-04-06T09:08:48;101174.34;;;7.89;41.02
64841;BME280;51307;52.162;7.560;2023-04-06T09:11:14;101180.56;;;7.99;40.80
64841;BME280;51307;52.162;7.560;2023-04-06T09:16:16;101165.44;;;8.09;40.64
64841;BME280;51307;52.162;7.560;2023-04-06T09:18:42;101161.66;;;8.12;40.41
64841;BME280;51307;52.162;7.560;2023-04-06T09:21:08;101157.59;;;8.18;40.05
64841;BME280;51307;52.162;7.560;2023-04-06T09:23:34;101162.69;;;8.31;39.96
64841;BME280;51307;52.162;7.560;2023-04-06T09:26:10;101155.97;;;8.36;39.81
64841;BME280;51307;52.162;7.560;2023-04-06T09:31:14;101161.31;;;8.46;39.97
64841;BME280;51307;52.162;7.560;2023-04-06T09:33:42;101157.16;;;8.63;40.53
64841;BME280;51307;52.162;7.560;2023-04-06T09:36:08;101155.88;;;8.67;39.79
64841;BME280;51307;52.162;7.560;2023-04-06T09:38:52;101144.53;;;8.65;38.64
64841;BME280;51307;52.162;7.560;2023-04-06T09:41:30;101139.47;;;8.82;38.35
64841;BME280;51307;52.162;7.560;2023-04-06T09:44:10;101143.72;;;8.94;38.95
64841;BME280;51307;52.162;7.560;2023-04-06T09:46:40;101141.34;;;8.91;38.23
64841;BME280;51307;52.162;7.560;2023-04-06T09:49:08;101140.50;;;9.00;37.45
64841;BME280;51307;52.162;7.560;2023-04-06T09:52:01;101137.25;;;8.97;36.99
64841;BME280;51307;52.162;7.560;2023-04-06T09:54:28;101143.69;;;9.04;37.19
64841;BME280;51307;52.162;7.560;2023-04-06T09:56:56;101143.13;;;9.20;37.35
64841;BME280;51307;52.162;7.560;2023-04-06T10:02:18;101134.09;;;9.31;36.64
64841;BME280;51307;52.162;7.560;2023-04-06T10:04:57;101132.69;;;9.36;36.00
64841;BME280;51307;52.162;7.560;2023-04-06T10:07:26;101126.22;;;9.49;36.99
64841;BME280;51307;52.162;7.560;2023-04-06T10:09:54;101133.06;;;9.61;36.26
64841;BME280;51307;52.162;7.560;2023-04-06T10:12:20;101126.13;;;9.21;34.47
64841;BME280;51307;52.162;7.560;2023-04-06T10:14:45;101117.41;;;9.19;35.27
64841;BME280;51307;52.162;7.560;2023-04-06T10:17:11;101131.59;;;9.19;35.04
64841;BME280;51307;52.162;7.560;2023-04-06T10:19:55;101128.66;;;9.70;34.27
64841;BME280;51307;52.162;7.560;2023-04-06T10:22:35;101134.47;;;9.93;33.21
64841;BME280;51307;52.162;7.560;2023-04-06T10:25:02;101132.91;;;10.00;33.42
64841;BME280;51307;52.162;7.560;2023-04-06T10:27:28;101132.41;;;10.15;32.63
64841;BME280;51307;52.162;7.560;2023-04-06T10:30:01;101126.44;;;10.21;34.23
64841;BME280;51307;52.162;7.560;2023-04-06T10:32:35;101127.31;;;10.21;33.67
64841;BME280;51307;52.162;7.560;2023-04-06T10:35:11;101130.81;;;10.22;33.55
64841;BME280;51307;52.162;7.560;2023-04-06T10:37:53;101128.97;;;10.22;33.32
64841;BME280;51307;52.162;7.560;2023-04-06T10:40:21;101130.22;;;10.28;33.16
64841;BME280;51307;52.162;7.560;2023-04-06T10:42:47;101125.00;;;10.26;33.91
64841;BME280;51307;52.162;7.560;2023-04-06T10:45:33;101125.38;;;10.32;33.89
64841;BME280;51307;52.162;7.560;2023-04-06T10:47:58;101118.22;;;10.32;34.28
64841;BME280;51307;52.162;7.560;2023-04-06T10:50:24;101119.72;;;10.45;33.74
64841;BME280;51307;52.162;7.560;2023-04-06T10:53:01;101116.31;;;10.42;33.69
64841;BME280;51307;52.162;7.560;2023-04-06T10:55:28;101113.06;;;10.49;32.71
64841;BME280;51307;52.162;7.560;2023-04-06T10:57:55;101106.56;;;10.51;32.90
64841;BME280;51307;52.162;7.560;2023-04-06T11:00:20;101114.38;;;10.45;31.65
64841;BME280;51307;52.162;7.560;2023-04-06T11:02:46;101100.81;;;10.64;33.02
64841;BME280;51307;52.162;7.560;2023-04-06T11:05:12;101102.34;;;10.67;33.61
64841;BME280;51307;52.162;7.560;2023-04-06T11:07:39;101104.44;;;10.73;32.92
64841;BME280;51307;52.162;7.560;2023-04-06T11:10:06;101097.94;;;10.75;32.79
64841;BME280;51307;52.162;7.560;2023-04-06T11:12:32;101101.53;;;10.66;30.08
64841;BME280;51307;52.162;7.560;2023-04-06T11:15:02;101103.88;;;10.69;30.84
64841;BME280;51307;52.162;7.560;2023-04-06T11:17:36;101102.97;;;10.79;30.69
64841;BME280;51307;52.162;7.560;2023-04-06T11:20:04;101108.31;;;10.79;29.77
64841;BME280;51307;52.162;7.560;2023-04-06T11:22:31;101100.59;;;10.75;27.96
64841;BME280;51307;52.162;7.560;2023-04-06T11:25:06;101095.47;;;10.82;29.29
64841;BME280;51307;52.162;7.560;2023-04-06T11:27:33;101091.06;;;10.99;29.89
64841;BME280;51307;52.162;7.560;2023-04-06T11:30:01;101093.75;;;10.99;30.27
64841;BME280;51307;52.162;7.560;2023-04-06T11:32:27;101090.84;;;10.92;30.98
64841;BME280;51307;52.162;7.560;2023-04-06T11:34:53;101091.06;;;10.99;30.29
64841;BME280;51307;52.162;7.560;2023-04-06T11:37:19;101083.69;;;10.93;29.46
64841;BME280;51307;52.162;7.560;2023-04-06T11:39:54;101079.19;;;11.20;30.49
64841;BME280;51307;52.162;7.560;2023-04-06T11:42:26;101075.31;;;11.14;29.58
64841;BME280;51307;52.162;7.560;2023-04-06T11:44:59;101073.47;;;11.15;29.27
64841;BME280;51307;52.162;7.560;2023-04-06T11:47:37;101078.34;;;11.19;30.03
64841;BME280;51307;52.162;7.560;2023-04-06T11:50:13;101078.19;;;11.21;29.79
64841;BME280;51307;52.162;7.560;2023-04-06T11:52:40;101069.16;;;11.22;29.81
64841;BME280;51307;52.162;7.560;2023-04-06T11:55:15;101066.50;;;11.30;29.78
64841;BME280;51307;52.162;7.560;2023-04-06T11:57:42;101072.94;;;11.37;28.76
64841;BME280;51307;52.162;7.560;2023-04-06T12:00:08;101066.66;;;11.28;28.25
64841;BME280;51307;52.162;7.560;2023-04-06T12:02:38;101068.53;;;11.28;27.68
64841;BME280;51307;52.162;7.560;2023-04-06T12:05:05;101073.09;;;11.36;27.76
64841;BME280;51307;52.162;7.560;2023-04-06T12:07:32;101066.63;;;11.47;29.23
64841;BME280;51307;52.162;7.560;2023-04-06T12:10:02;101063.03;;;11.38;27.76
64841;BME280;51307;52.162;7.560;2023-04-06T12:12:28;101065.56;;;11.39;27.60
64841;BME280;51307;52.162;7.560;2023-04-06T12:14:55;101061.72;;;11.42;28.26
64841;BME280;51307;52.162;7.560;2023-04-06T12:17:21;101067.94;;;11.42;27.91
64841;BME280;51307;52.162;7.560;2023-04-06T12:19:46;101062.59;;;11.42;28.12
64841;BME280;51307;52.162;7.560;2023-04-06T12:22:12;101061.53;;;11.35;26.16
64841;BME280;51307;52.162;7.560;2023-04-06T12:24:37;101055.41;;;11.51;26.54
64841;BME280;51307;52.162;7.560;2023-04-06T12:27:03;101061.31;;;11.55;26.83
64841;BME280;51307;52.162;7.560;2023-04-06T12:29:28;101052.75;;;11.59;27.02
64841;BME280;51307;52.162;7.560;2023-04-06T12:31:54;101062.28;;;11.54;26.59
64841;BME280;51307;52.162;7.560;2023-04-06T12:34:20;101060.59;;;11.53;26.70
64841;BME280;51307;52.162;7.560;2023-04-06T12:36:46;101054.31;;;11.70;27.97
64841;BME280;51307;52.162;7.560;2023-04-06T12:39:11;101054.03;;;11.82;27.91
64841;BME280;51307;52.162;7.560;2023-04-06T12:41:37;101060.63;;;11.87;28.06
64841;BME280;51307;52.162;7.560;2023-04-06T12:44:05;101049.34;;;11.84;27.87
64841;BME280;51307;52.162;7.560;2023-04-06T12:46:31;101053.56;;;11.86;27.97
64841;BME280;51307;52.162;7.560;2023-04-06T12:48:57;101046.81;;;11.82;28.57
64841;BME280;51307;52.162;7.560;2023-04-06T12:51:27;101050.44;;;11.91;28.03
64841;BME280;51307;52.162;7.560;2023-04-06T12:53:52;101052.41;;;11.89;27.89
64841;BME280;51307;52.162;7.560;2023-04-06T12:56:18;101051.03;;;11.85;28.40
64841;BME280;51307;52.162;7.560;2023-04-06T12:58:45;101039.47;;;11.84;28.80
64841;BME280;51307;52.162;7.560;2023-04-06T13:01:11;101046.22;;;11.88;29.57
64841;BME280;51307;52.162;7.560;2023-04-06T13:03:40;101042.69;;;11.96;28.89